createdAt,value
2016-12-30T00:00:00.876Z,74.43
2016-12-30T00:00:28.659Z,74.56
2016-12-30T00:00:56.454Z,74.13
2016-12-30T00:01:24.221Z,75.01
2016-12-30T00:01:52.010Z,75.1
2016-12-30T00:02:19.765Z,75.3
2016-12-30T00:02:47.555Z,74.91
2016-12-30T00:03:15.489Z,74.91
2016-12-30T00:03:43.271Z,75.2
2016-12-30T00:04:11.051Z,75.2
2016-12-30T00:04:38.850Z,75.49
2016-12-30T00:05:06.617Z,75.68
2016-12-30T00:05:34.360Z,75.3
2016-12-30T00:06:02.099Z,75.2
2016-12-30T00:06:29.850Z,76.17
2016-12-30T00:06:57.639Z,75.98
2016-12-30T00:07:25.488Z,75.88
2016-12-30T00:07:53.253Z,76.52
2016-12-30T00:08:21.108Z,76.72
2016-12-30T00:08:48.879Z,76.72
2016-12-30T00:09:16.675Z,76.42
2016-12-30T00:09:44.443Z,76.62
2016-12-30T00:10:12.252Z,76.72
2016-12-30T00:10:40.029Z,76.81
2016-12-30T00:11:07.825Z,77.39
2016-12-30T00:11:35.632Z,77.01
2016-12-30T00:12:03.427Z,77.01
2016-12-30T00:12:31.204Z,76.62
2016-12-30T00:12:59.083Z,76.62
2016-12-30T00:13:26.976Z,76.32
2016-12-30T00:13:54.783Z,77.04
2016-12-30T00:14:22.568Z,76.65
2016-12-30T00:14:50.306Z,76.95
2016-12-30T00:15:18.065Z,76.56
2016-12-30T00:15:45.811Z,76.56
2016-12-30T00:16:13.645Z,76.65
2016-12-30T00:16:41.428Z,76.37
2016-12-30T00:17:09.257Z,76.56
2016-12-30T00:17:37.044Z,77.34
2016-12-30T00:18:04.849Z,77.24
2016-12-30T00:18:32.791Z,76.56
2016-12-30T00:19:00.555Z,76.75
2016-12-30T00:19:28.348Z,76.46
2016-12-30T00:19:56.134Z,76.27
2016-12-30T00:20:23.874Z,76.37
2016-12-30T00:20:51.605Z,76.01
2016-12-30T00:21:19.362Z,75.98
2016-12-30T00:21:47.148Z,76.21
2016-12-30T00:22:14.935Z,75.53
2016-12-30T00:22:42.722Z,75.62
2016-12-30T00:23:10.493Z,75.34
2016-12-30T00:23:38.368Z,75.72
2016-12-30T00:24:06.212Z,75.78
2016-12-30T00:24:34.021Z,75.82
2016-12-30T00:25:01.802Z,75.92
2016-12-30T00:25:29.559Z,75.62
2016-12-30T00:25:57.351Z,75.92
2016-12-30T00:26:25.170Z,76.21
2016-12-30T00:26:52.911Z,76.37
2016-12-30T00:27:20.690Z,76.31
2016-12-30T00:27:48.508Z,76.6
2016-12-30T00:28:16.305Z,76.89
2016-12-30T00:28:44.265Z,76.79
2016-12-30T00:29:12.007Z,76.89
2016-12-30T00:29:39.788Z,76.79
2016-12-30T00:30:07.654Z,76.89
2016-12-30T00:30:35.406Z,76.65
2016-12-30T00:31:03.189Z,76.56
2016-12-30T00:31:31.088Z,77.24
2016-12-30T00:31:58.832Z,76.65
2016-12-30T00:32:26.602Z,76.65
2016-12-30T00:32:54.381Z,76.56
2016-12-30T00:33:22.205Z,76.56
2016-12-30T00:33:50.180Z,76.56
2016-12-30T00:34:17.943Z,76.56
2016-12-30T00:34:45.700Z,76.65
2016-12-30T00:35:13.430Z,76.65
2016-12-30T00:35:41.147Z,76.95
2016-12-30T00:36:08.942Z,76.75
2016-12-30T00:36:36.725Z,77.34
2016-12-30T00:37:04.467Z,76.65
2016-12-30T00:37:32.256Z,76.6
2016-12-30T00:38:00.041Z,76.79
2016-12-30T00:38:27.830Z,76.75
2016-12-30T00:38:55.723Z,76.89
2016-12-30T00:39:23.608Z,76.69
2016-12-30T00:39:51.390Z,76.69
2016-12-30T00:40:19.258Z,76.46
2016-12-30T00:40:47.043Z,76.5
2016-12-30T00:41:14.828Z,76.75
2016-12-30T00:41:42.601Z,76.46
2016-12-30T00:42:10.397Z,76.69
2016-12-30T00:42:38.180Z,76.5
2016-12-30T00:43:05.922Z,76.98
2016-12-30T00:43:33.724Z,76.37
2016-12-30T00:44:01.600Z,76.89
2016-12-30T00:44:29.394Z,76.69
2016-12-30T00:44:57.156Z,76.4
2016-12-30T00:45:24.971Z,76.6
2016-12-30T00:45:52.738Z,76.21
2016-12-30T00:46:20.545Z,76.95
2016-12-30T00:46:48.339Z,76.65
2016-12-30T00:47:16.165Z,76.69
2016-12-30T00:47:43.963Z,76.69
2016-12-30T00:48:11.710Z,76.79
2016-12-30T00:48:39.517Z,76.79
2016-12-30T00:49:07.387Z,76.69
2016-12-30T00:49:35.207Z,76.69
2016-12-30T00:50:02.999Z,76.98
2016-12-30T00:50:30.801Z,76.98
2016-12-30T00:50:58.651Z,77.18
2016-12-30T00:51:26.428Z,77.47
2016-12-30T00:51:54.180Z,76.46
2016-12-30T00:52:21.989Z,76.69
2016-12-30T00:52:49.805Z,77.14
2016-12-30T00:53:17.572Z,76.65
2016-12-30T00:53:45.356Z,76.46
2016-12-30T00:54:13.224Z,76.95
2016-12-30T00:54:40.997Z,76.69
2016-12-30T00:55:08.744Z,77.18
2016-12-30T00:55:36.513Z,76.69
2016-12-30T00:56:04.242Z,76.79
2016-12-30T00:56:32.138Z,77.43
2016-12-30T00:56:59.945Z,77.82
2016-12-30T00:57:27.731Z,77.82
2016-12-30T00:57:55.509Z,77.62
2016-12-30T00:58:23.294Z,78.11
2016-12-30T00:58:51.088Z,77.53
2016-12-30T00:59:18.945Z,77.82
2016-12-30T00:59:46.728Z,77.82
2016-12-30T01:00:14.520Z,78.02
2016-12-30T01:00:42.296Z,78.31
2016-12-30T01:01:10.049Z,78.31
2016-12-30T01:01:37.824Z,78.31
2016-12-30T01:02:05.698Z,78.31
2016-12-30T01:02:33.477Z,78.21
2016-12-30T01:03:01.260Z,78.31
2016-12-30T01:03:29.012Z,78.89
2016-12-30T01:03:56.872Z,78.69
2016-12-30T01:04:24.681Z,78.69
2016-12-30T01:04:52.494Z,78.89
2016-12-30T01:05:20.297Z,79.28
2016-12-30T01:05:48.087Z,78.99
2016-12-30T01:06:15.868Z,78.79
2016-12-30T01:06:43.650Z,78.89
2016-12-30T01:07:11.441Z,79.28
2016-12-30T01:07:39.246Z,78.99
2016-12-30T01:08:07.042Z,79.18
2016-12-30T01:08:34.795Z,78.79
2016-12-30T01:09:02.684Z,79.18
2016-12-30T01:09:30.489Z,79.08
2016-12-30T01:09:58.231Z,78.99
2016-12-30T01:10:26.009Z,78.79
2016-12-30T01:10:53.771Z,78.59
2016-12-30T01:11:21.662Z,79.18
2016-12-30T01:11:49.524Z,78.31
2016-12-30T01:12:17.325Z,78.21
2016-12-30T01:12:45.114Z,78.02
2016-12-30T01:13:12.861Z,78.11
2016-12-30T01:13:40.656Z,78.56
2016-12-30T01:14:08.488Z,78.99
2016-12-30T01:14:36.224Z,79.18
2016-12-30T01:15:03.978Z,78.02
2016-12-30T01:15:31.734Z,78.17
2016-12-30T01:15:59.543Z,77.98
2016-12-30T01:16:27.312Z,77.49
2016-12-30T01:16:55.077Z,77.88
2016-12-30T01:17:22.886Z,78.27
2016-12-30T01:17:50.657Z,78.17
2016-12-30T01:18:18.464Z,78.75
2016-12-30T01:18:46.242Z,79.14
2016-12-30T01:19:14.103Z,79.43
2016-12-30T01:19:41.903Z,78.46
2016-12-30T01:20:09.784Z,77.98
2016-12-30T01:20:37.519Z,77.98
2016-12-30T01:21:05.329Z,78.17
2016-12-30T01:21:33.105Z,78.07
2016-12-30T01:22:00.934Z,77.84
2016-12-30T01:22:28.733Z,77.49
2016-12-30T01:22:56.520Z,77.29
2016-12-30T01:23:24.320Z,77.29
2016-12-30T01:23:52.104Z,77.2
2016-12-30T01:24:19.973Z,77.11
2016-12-30T01:24:47.750Z,76.62
2016-12-30T01:25:15.507Z,76.78
2016-12-30T01:25:43.454Z,76.81
2016-12-30T01:26:11.265Z,77.01
2016-12-30T01:26:39.035Z,76.91
2016-12-30T01:27:06.829Z,76.91
2016-12-30T01:27:34.647Z,76.91
2016-12-30T01:28:02.349Z,76.52
2016-12-30T01:28:30.151Z,76.72
2016-12-30T01:28:57.908Z,77.59
2016-12-30T01:29:25.819Z,77.11
2016-12-30T01:29:53.621Z,77.2
2016-12-30T01:30:21.513Z,77.65
2016-12-30T01:30:49.285Z,78.03
2016-12-30T01:31:17.129Z,78.13
2016-12-30T01:31:44.911Z,78.03
2016-12-30T01:32:12.717Z,78.81
2016-12-30T01:32:40.471Z,78.17
2016-12-30T01:33:08.264Z,78.17
2016-12-30T01:33:36.042Z,78.17
2016-12-30T01:34:03.898Z,78.17
2016-12-30T01:34:31.803Z,77.94
2016-12-30T01:34:59.585Z,78.17
2016-12-30T01:35:27.370Z,78.61
2016-12-30T01:35:55.147Z,79.2
2016-12-30T01:36:22.933Z,78.81
2016-12-30T01:36:50.818Z,79
2016-12-30T01:37:18.608Z,79.1
2016-12-30T01:37:46.428Z,78.91
2016-12-30T01:38:14.295Z,78.85
2016-12-30T01:38:42.070Z,78.91
2016-12-30T01:39:09.844Z,79.04
2016-12-30T01:39:37.711Z,79
2016-12-30T01:40:05.528Z,78.33
2016-12-30T01:40:33.305Z,78.17
2016-12-30T01:41:01.065Z,78.27
2016-12-30T01:41:28.851Z,78.07
2016-12-30T01:41:56.730Z,77.69
2016-12-30T01:42:24.497Z,77.69
2016-12-30T01:42:52.303Z,77.69
2016-12-30T01:43:20.085Z,77.78
2016-12-30T01:43:47.860Z,76.91
2016-12-30T01:44:15.617Z,77.11
2016-12-30T01:44:43.468Z,77.34
2016-12-30T01:45:11.271Z,77.39
2016-12-30T01:45:39.066Z,76.62
2016-12-30T01:46:06.888Z,77.04
2016-12-30T01:46:34.736Z,76.65
2016-12-30T01:47:02.517Z,76.75
2016-12-30T01:47:30.279Z,76.85
2016-12-30T01:47:58.112Z,76.27
2016-12-30T01:48:25.845Z,76.46
2016-12-30T01:48:53.632Z,76.95
2016-12-30T01:49:21.463Z,76.32
2016-12-30T01:49:49.372Z,76.72
2016-12-30T01:50:17.144Z,76.52
2016-12-30T01:50:44.887Z,76.62
2016-12-30T01:51:12.666Z,76.81
2016-12-30T01:51:40.466Z,77.04
2016-12-30T01:52:08.277Z,77.14
2016-12-30T01:52:36.065Z,76.56
2016-12-30T01:53:03.824Z,76.62
2016-12-30T01:53:31.572Z,76.42
2016-12-30T01:53:59.383Z,76.85
2016-12-30T01:54:27.131Z,76.85
2016-12-30T01:54:55.019Z,76.46
2016-12-30T01:55:22.796Z,76.46
2016-12-30T01:55:50.543Z,76.56
2016-12-30T01:56:18.295Z,75.88
2016-12-30T01:56:46.081Z,76.56
2016-12-30T01:57:13.876Z,76.07
2016-12-30T01:57:41.700Z,77.01
2016-12-30T01:58:09.466Z,77.39
2016-12-30T01:58:37.301Z,77.39
2016-12-30T01:59:05.080Z,77.11
2016-12-30T01:59:32.860Z,77.2
2016-12-30T02:00:00.839Z,76.72
2016-12-30T02:00:28.625Z,77.29
2016-12-30T02:00:56.411Z,76.72
2016-12-30T02:01:24.195Z,77.29
2016-12-30T02:01:52.037Z,77.11
2016-12-30T02:02:19.825Z,77.39
2016-12-30T02:02:47.599Z,77.49
2016-12-30T02:03:15.421Z,77.39
2016-12-30T02:03:43.211Z,77.29
2016-12-30T02:04:10.957Z,77.2
2016-12-30T02:04:38.747Z,77.2
2016-12-30T02:05:06.730Z,77.39
2016-12-30T02:05:34.478Z,77.39
2016-12-30T02:06:02.236Z,77.26
2016-12-30T02:06:30.089Z,77.2
2016-12-30T02:06:57.824Z,77.39
2016-12-30T02:07:25.627Z,77.39
2016-12-30T02:07:53.446Z,77.39
2016-12-30T02:08:21.250Z,77.2
2016-12-30T02:08:49.045Z,77.39
2016-12-30T02:09:16.823Z,77.59
2016-12-30T02:09:44.641Z,77.49
2016-12-30T02:10:12.617Z,78.07
2016-12-30T02:10:40.361Z,78.07
2016-12-30T02:11:08.131Z,77.69
2016-12-30T02:11:35.925Z,77.69
2016-12-30T02:12:03.716Z,77.2
2016-12-30T02:12:31.487Z,77.29
2016-12-30T02:12:59.285Z,77.11
2016-12-30T02:13:27.047Z,77.2
2016-12-30T02:13:54.857Z,77.49
2016-12-30T02:14:22.602Z,76.91
2016-12-30T02:14:50.411Z,76.65
2016-12-30T02:15:18.271Z,76.65
2016-12-30T02:15:46.048Z,76.85
2016-12-30T02:16:13.881Z,76.85
2016-12-30T02:16:41.666Z,76.65
2016-12-30T02:17:09.548Z,76.72
2016-12-30T02:17:37.325Z,76.95
2016-12-30T02:18:05.122Z,76.65
2016-12-30T02:18:32.839Z,76.56
2016-12-30T02:19:00.661Z,76.65
2016-12-30T02:19:28.444Z,76.65
2016-12-30T02:19:56.173Z,76.27
2016-12-30T02:20:24.124Z,76.95
2016-12-30T02:20:51.963Z,76.85
2016-12-30T02:21:19.742Z,76.85
2016-12-30T02:21:47.502Z,76.56
2016-12-30T02:22:15.295Z,77.62
2016-12-30T02:22:43.082Z,76.95
2016-12-30T02:23:10.838Z,76.65
2016-12-30T02:23:38.567Z,76.56
2016-12-30T02:24:06.372Z,76.65
2016-12-30T02:24:34.169Z,76.75
2016-12-30T02:25:01.988Z,77.04
2016-12-30T02:25:29.850Z,76.65
2016-12-30T02:25:57.620Z,76.46
2016-12-30T02:26:25.356Z,76.65
2016-12-30T02:26:53.170Z,76.95
2016-12-30T02:27:20.978Z,77.43
2016-12-30T02:27:48.774Z,76.46
2016-12-30T02:28:16.591Z,76.46
2016-12-30T02:28:44.385Z,76.46
2016-12-30T02:29:12.169Z,76.95
2016-12-30T02:29:39.960Z,77.34
2016-12-30T02:30:07.712Z,76.85
2016-12-30T02:30:35.573Z,77.24
2016-12-30T02:31:03.361Z,76.85
2016-12-30T02:31:31.197Z,76.56
2016-12-30T02:31:58.969Z,76.46
2016-12-30T02:32:26.741Z,76.46
2016-12-30T02:32:54.509Z,77.24
2016-12-30T02:33:22.394Z,76.65
2016-12-30T02:33:50.213Z,76.75
2016-12-30T02:34:17.983Z,76.75
2016-12-30T02:34:45.812Z,76.65
2016-12-30T02:35:13.726Z,76.95
2016-12-30T02:35:41.489Z,77.04
2016-12-30T02:36:09.314Z,76.46
2016-12-30T02:36:37.097Z,77.04
2016-12-30T02:37:04.870Z,76.95
2016-12-30T02:37:32.626Z,76.65
2016-12-30T02:38:00.417Z,76.46
2016-12-30T02:38:28.202Z,77.04
2016-12-30T02:38:56.004Z,76.72
2016-12-30T02:39:23.860Z,76.56
2016-12-30T02:39:51.638Z,76.75
2016-12-30T02:40:19.541Z,76.95
2016-12-30T02:40:47.321Z,76.75
2016-12-30T02:41:15.081Z,76.56
2016-12-30T02:41:42.856Z,76.85
2016-12-30T02:42:10.643Z,77.11
2016-12-30T02:42:38.413Z,77.49
2016-12-30T02:43:06.230Z,77.49
2016-12-30T02:43:34.063Z,77.34
2016-12-30T02:44:01.824Z,77.34
2016-12-30T02:44:29.570Z,77.43
2016-12-30T02:44:57.324Z,77.43
2016-12-30T02:45:25.234Z,77.34
2016-12-30T02:45:53.030Z,77.04
2016-12-30T02:46:20.876Z,76.56
2016-12-30T02:46:48.673Z,76.95
2016-12-30T02:47:16.467Z,76.85
2016-12-30T02:47:44.325Z,76.85
2016-12-30T02:48:12.110Z,76.46
2016-12-30T02:48:39.910Z,76.65
2016-12-30T02:49:07.702Z,76.85
2016-12-30T02:49:35.508Z,76.95
2016-12-30T02:50:03.300Z,76.75
2016-12-30T02:50:31.129Z,76.85
2016-12-30T02:50:58.967Z,76.65
2016-12-30T02:51:26.725Z,76.85
2016-12-30T02:51:54.549Z,76.85
2016-12-30T02:52:22.296Z,76.85
2016-12-30T02:52:50.050Z,76.65
2016-12-30T02:53:17.850Z,76.46
2016-12-30T02:53:45.666Z,76.75
2016-12-30T02:54:13.455Z,76.95
2016-12-30T02:54:41.264Z,77.53
2016-12-30T02:55:09.022Z,77.78
2016-12-30T02:55:36.924Z,77.69
2016-12-30T02:56:04.723Z,77.82
2016-12-30T02:56:32.504Z,77.24
2016-12-30T02:57:00.304Z,77.43
2016-12-30T02:57:28.120Z,77.34
2016-12-30T02:57:55.923Z,77.01
2016-12-30T02:58:23.670Z,76.75
2016-12-30T02:58:51.416Z,76.85
2016-12-30T02:59:19.178Z,76.75
2016-12-30T02:59:46.950Z,76.95
2016-12-30T03:00:14.855Z,76.75
2016-12-30T03:00:42.683Z,77.53
2016-12-30T03:01:10.468Z,77.34
2016-12-30T03:01:38.387Z,76.46
2016-12-30T03:02:06.189Z,77.24
2016-12-30T03:02:34.001Z,76.85
2016-12-30T03:03:01.831Z,77.34
2016-12-30T03:03:29.623Z,76.56
2016-12-30T03:03:57.400Z,76.75
2016-12-30T03:04:25.180Z,76.85
2016-12-30T03:04:52.941Z,77.04
2016-12-30T03:05:20.731Z,76.85
2016-12-30T03:05:48.646Z,76.75
2016-12-30T03:06:16.456Z,76.85
2016-12-30T03:06:44.217Z,76.65
2016-12-30T03:07:12.179Z,76.37
2016-12-30T03:07:39.973Z,76.37
2016-12-30T03:08:07.774Z,76.46
2016-12-30T03:08:35.571Z,76.65
2016-12-30T03:09:03.353Z,76.65
2016-12-30T03:09:31.147Z,77.14
2016-12-30T03:09:59.002Z,77.04
2016-12-30T03:10:26.766Z,76.56
2016-12-30T03:10:54.595Z,76.85
2016-12-30T03:11:22.338Z,76.95
2016-12-30T03:11:50.129Z,76.75
2016-12-30T03:12:17.947Z,76.65
2016-12-30T03:12:45.739Z,76.65
2016-12-30T03:13:13.492Z,76.56
2016-12-30T03:13:41.254Z,76.95
2016-12-30T03:14:09.060Z,77.04
2016-12-30T03:14:36.878Z,77.34
2016-12-30T03:15:04.669Z,77.2
2016-12-30T03:15:32.481Z,77.59
2016-12-30T03:16:00.383Z,77.59
2016-12-30T03:16:28.175Z,77.34
2016-12-30T03:16:55.989Z,77.78
2016-12-30T03:17:23.756Z,77.49
2016-12-30T03:17:51.530Z,77.49
2016-12-30T03:18:19.295Z,77.59
2016-12-30T03:18:47.058Z,77.78
2016-12-30T03:19:14.848Z,77.29
2016-12-30T03:19:42.666Z,77.11
2016-12-30T03:20:10.471Z,77.01
2016-12-30T03:20:38.231Z,77.24
2016-12-30T03:21:06.109Z,77.69
2016-12-30T03:21:33.967Z,77.78
2016-12-30T03:22:01.760Z,77.69
2016-12-30T03:22:29.577Z,77.49
2016-12-30T03:22:57.345Z,77.69
2016-12-30T03:23:25.162Z,77.01
2016-12-30T03:23:52.958Z,77.29
2016-12-30T03:24:20.748Z,77.24
2016-12-30T03:24:48.532Z,77.29
2016-12-30T03:25:16.314Z,77.01
2016-12-30T03:25:44.125Z,77.04
2016-12-30T03:26:12.038Z,76.65
2016-12-30T03:26:39.820Z,76.75
2016-12-30T03:27:07.639Z,76.85
2016-12-30T03:27:35.480Z,76.85
2016-12-30T03:28:03.270Z,76.65
2016-12-30T03:28:31.067Z,76.65
2016-12-30T03:28:58.837Z,77.01
2016-12-30T03:29:26.649Z,76.91
2016-12-30T03:29:54.441Z,76.56
2016-12-30T03:30:22.254Z,76.62
2016-12-30T03:30:50.094Z,76.52
2016-12-30T03:31:18.018Z,77.39
2016-12-30T03:31:45.854Z,77.11
2016-12-30T03:32:13.652Z,77.29
2016-12-30T03:32:41.436Z,77.49
2016-12-30T03:33:09.187Z,78.07
2016-12-30T03:33:37.028Z,77.78
2016-12-30T03:34:04.819Z,77.78
2016-12-30T03:34:32.624Z,77.88
2016-12-30T03:35:00.364Z,78.17
2016-12-30T03:35:28.132Z,77.69
2016-12-30T03:35:55.862Z,77.01
2016-12-30T03:36:23.722Z,77.2
2016-12-30T03:36:51.502Z,77.49
2016-12-30T03:37:19.298Z,77.2
2016-12-30T03:37:47.090Z,77.11
2016-12-30T03:38:14.861Z,77.69
2016-12-30T03:38:42.672Z,77.29
2016-12-30T03:39:10.557Z,77.69
2016-12-30T03:39:38.357Z,77.78
2016-12-30T03:40:06.128Z,77.88
2016-12-30T03:40:33.941Z,78.17
2016-12-30T03:41:01.696Z,77.29
2016-12-30T03:41:29.616Z,77.49
2016-12-30T03:41:57.498Z,77.29
2016-12-30T03:42:25.290Z,77.01
2016-12-30T03:42:53.126Z,77.78
2016-12-30T03:43:20.931Z,77.39
2016-12-30T03:43:48.761Z,77.11
2016-12-30T03:44:16.594Z,77.04
2016-12-30T03:44:44.400Z,77.2
2016-12-30T03:45:12.165Z,77.34
2016-12-30T03:45:39.968Z,77.24
2016-12-30T03:46:07.749Z,77.49
2016-12-30T03:46:35.663Z,77.2
2016-12-30T03:47:03.452Z,77.01
2016-12-30T03:47:31.211Z,77.39
2016-12-30T03:47:59.048Z,77.78
2016-12-30T03:48:26.885Z,77.78
2016-12-30T03:48:54.686Z,77.59
2016-12-30T03:49:22.565Z,77.69
2016-12-30T03:49:50.308Z,77.69
2016-12-30T03:50:18.035Z,77.59
2016-12-30T03:50:45.768Z,77.59
2016-12-30T03:51:13.528Z,77.69
2016-12-30T03:51:41.497Z,77.49
2016-12-30T03:52:09.309Z,77.01
2016-12-30T03:52:37.068Z,77.49
2016-12-30T03:53:04.871Z,77.78
2016-12-30T03:53:32.674Z,77.69
2016-12-30T03:54:00.461Z,77.98
2016-12-30T03:54:28.351Z,78.07
2016-12-30T03:54:56.133Z,77.78
2016-12-30T03:55:23.953Z,77.29
2016-12-30T03:55:51.724Z,77.29
2016-12-30T03:56:19.462Z,77.49
2016-12-30T03:56:47.346Z,77.82
2016-12-30T03:57:15.109Z,78.17
2016-12-30T03:57:42.863Z,77.69
2016-12-30T03:58:10.677Z,77.88
2016-12-30T03:58:38.582Z,77.04
2016-12-30T03:59:06.358Z,77.34
2016-12-30T03:59:34.162Z,77.34
2016-12-30T04:00:01.947Z,77.39
2016-12-30T04:00:29.688Z,77.14
2016-12-30T04:00:57.439Z,76.62
2016-12-30T04:01:25.168Z,76.65
2016-12-30T04:01:53.012Z,76.42
2016-12-30T04:02:20.812Z,76.85
2016-12-30T04:02:48.575Z,76.72
2016-12-30T04:03:16.365Z,76.52
2016-12-30T04:03:44.109Z,76.62
2016-12-30T04:04:11.865Z,77.01
2016-12-30T04:04:39.663Z,77.39
2016-12-30T04:05:07.372Z,77.49
2016-12-30T04:05:35.182Z,78.07
2016-12-30T04:06:02.974Z,77.88
2016-12-30T04:06:30.805Z,77.98
2016-12-30T04:06:58.778Z,78.17
2016-12-30T04:07:26.536Z,77.98
2016-12-30T04:07:54.390Z,77.69
2016-12-30T04:08:22.131Z,77.59
2016-12-30T04:08:49.898Z,77.69
2016-12-30T04:09:17.718Z,77.69
2016-12-30T04:09:45.502Z,77.2
2016-12-30T04:10:13.260Z,77.01
2016-12-30T04:10:41.108Z,77.43
2016-12-30T04:11:08.847Z,77.39
2016-12-30T04:11:36.627Z,77.2
2016-12-30T04:12:04.518Z,77.39
2016-12-30T04:12:32.313Z,77.11
2016-12-30T04:13:00.083Z,77.29
2016-12-30T04:13:27.818Z,77.29
2016-12-30T04:13:55.612Z,77.39
2016-12-30T04:14:23.431Z,77.29
2016-12-30T04:14:51.196Z,77.2
2016-12-30T04:15:19.031Z,77.88
2016-12-30T04:15:46.817Z,77.59
2016-12-30T04:16:14.604Z,77.69
2016-12-30T04:16:42.384Z,77.78
2016-12-30T04:17:10.298Z,78.07
2016-12-30T04:17:38.201Z,77.98
2016-12-30T04:18:05.985Z,77.88
2016-12-30T04:18:33.708Z,78.27
2016-12-30T04:19:01.482Z,78.07
2016-12-30T04:19:29.270Z,77.98
2016-12-30T04:19:57.033Z,78.17
2016-12-30T04:20:24.877Z,77.98
2016-12-30T04:20:52.638Z,79.04
2016-12-30T04:21:20.362Z,78.56
2016-12-30T04:21:48.176Z,78.42
2016-12-30T04:22:16.079Z,78.75
2016-12-30T04:22:43.863Z,78.75
2016-12-30T04:23:11.644Z,78.75
2016-12-30T04:23:39.437Z,78.94
2016-12-30T04:24:07.214Z,78.56
2016-12-30T04:24:34.966Z,78.85
2016-12-30T04:25:02.748Z,79.04
2016-12-30T04:25:30.555Z,79.14
2016-12-30T04:25:58.386Z,78.94
2016-12-30T04:26:26.129Z,78.66
2016-12-30T04:26:53.968Z,78.66
2016-12-30T04:27:21.853Z,78.75
2016-12-30T04:27:49.640Z,78.46
2016-12-30T04:28:17.420Z,77.98
2016-12-30T04:28:45.184Z,78.27
2016-12-30T04:29:12.970Z,78.17
2016-12-30T04:29:40.790Z,78.27
2016-12-30T04:30:08.524Z,78.27
2016-12-30T04:30:36.330Z,78.36
2016-12-30T04:31:04.126Z,78.17
2016-12-30T04:31:31.959Z,78.07
2016-12-30T04:31:59.707Z,77.98
2016-12-30T04:32:27.622Z,78.27
2016-12-30T04:32:55.401Z,78.27
2016-12-30T04:33:23.213Z,78.36
2016-12-30T04:33:51.002Z,78.07
2016-12-30T04:34:18.789Z,77.88
2016-12-30T04:34:46.571Z,78.07
2016-12-30T04:35:14.347Z,78.17
2016-12-30T04:35:42.099Z,77.88
2016-12-30T04:36:09.874Z,78.07
2016-12-30T04:36:37.673Z,77.78
2016-12-30T04:37:05.427Z,77.98
2016-12-30T04:37:33.359Z,77.78
2016-12-30T04:38:01.115Z,78.27
2016-12-30T04:38:28.912Z,77.78
2016-12-30T04:38:56.695Z,77.49
2016-12-30T04:39:24.478Z,77.69
2016-12-30T04:39:52.218Z,77.69
2016-12-30T04:40:19.971Z,77.11
2016-12-30T04:40:47.751Z,77.39
2016-12-30T04:41:15.522Z,77.11
2016-12-30T04:41:43.272Z,77.2
2016-12-30T04:42:11.020Z,77.2
2016-12-30T04:42:38.929Z,77.39
2016-12-30T04:43:06.712Z,77.29
2016-12-30T04:43:34.495Z,77.29
2016-12-30T04:44:02.265Z,77.29
2016-12-30T04:44:30.078Z,77.11
2016-12-30T04:44:57.846Z,77.29
2016-12-30T04:45:25.619Z,77.2
2016-12-30T04:45:53.398Z,77.29
2016-12-30T04:46:21.181Z,77.2
2016-12-30T04:46:48.952Z,77.39
2016-12-30T04:47:16.772Z,77.53
2016-12-30T04:47:44.666Z,77.01
2016-12-30T04:48:12.462Z,77.01
2016-12-30T04:48:40.253Z,77.39
2016-12-30T04:49:08.049Z,77.2
2016-12-30T04:49:35.862Z,77.11
2016-12-30T04:50:03.624Z,77.49
2016-12-30T04:50:31.399Z,77.11
2016-12-30T04:50:59.184Z,77.59
2016-12-30T04:51:26.946Z,77.78
2016-12-30T04:51:54.706Z,77.69
2016-12-30T04:52:22.590Z,78.07
2016-12-30T04:52:50.359Z,78.07
2016-12-30T04:53:18.131Z,77.49
2016-12-30T04:53:45.961Z,77.69
2016-12-30T04:54:13.797Z,77.88
2016-12-30T04:54:41.527Z,78.07
2016-12-30T04:55:09.332Z,77.78
2016-12-30T04:55:37.142Z,77.69
2016-12-30T04:56:04.895Z,77.69
2016-12-30T04:56:32.687Z,76.91
2016-12-30T04:57:00.482Z,77.39
2016-12-30T04:57:28.407Z,76.91
2016-12-30T04:57:56.175Z,77.29
2016-12-30T04:58:23.969Z,77.11
2016-12-30T04:58:51.776Z,77.11
2016-12-30T04:59:19.570Z,77.39
2016-12-30T04:59:47.343Z,77.01
2016-12-30T05:00:15.203Z,77.69
2016-12-30T05:00:42.951Z,78.07
2016-12-30T05:01:10.760Z,78.07
2016-12-30T05:01:38.583Z,79.04
2016-12-30T05:02:06.446Z,78.94
2016-12-30T05:02:34.351Z,78.85
2016-12-30T05:03:02.106Z,79.43
2016-12-30T05:03:29.890Z,79.04
2016-12-30T05:03:57.679Z,79.33
2016-12-30T05:04:25.482Z,79.33
2016-12-30T05:04:53.220Z,79.43
2016-12-30T05:05:21.041Z,79.63
2016-12-30T05:05:48.795Z,78.75
2016-12-30T05:06:16.569Z,79.33
2016-12-30T05:06:44.299Z,79.53
2016-12-30T05:07:12.052Z,79.14
2016-12-30T05:07:39.973Z,78.94
2016-12-30T05:08:07.737Z,79.04
2016-12-30T05:08:35.471Z,79.04
2016-12-30T05:09:03.248Z,78.75
2016-12-30T05:09:31.015Z,79.04
2016-12-30T05:09:58.775Z,79.3
2016-12-30T05:10:26.558Z,78.75
2016-12-30T05:10:54.350Z,78.46
2016-12-30T05:11:22.114Z,78.66
2016-12-30T05:11:49.926Z,78.07
2016-12-30T05:12:17.723Z,78.17
2016-12-30T05:12:45.567Z,77.98
2016-12-30T05:13:13.345Z,78.17
2016-12-30T05:13:41.167Z,78.17
2016-12-30T05:14:08.924Z,77.88
2016-12-30T05:14:36.720Z,77.88
2016-12-30T05:15:04.499Z,77.98
2016-12-30T05:15:32.270Z,78.17
2016-12-30T05:16:00.072Z,77.98
2016-12-30T05:16:27.911Z,78.07
2016-12-30T05:16:55.703Z,77.78
2016-12-30T05:17:23.490Z,77.59
2016-12-30T05:17:51.421Z,77.59
2016-12-30T05:18:19.198Z,77.49
2016-12-30T05:18:46.953Z,77.69
2016-12-30T05:19:14.699Z,77.01
2016-12-30T05:19:42.577Z,77.29
2016-12-30T05:20:10.376Z,76.91
2016-12-30T05:20:38.190Z,77.2
2016-12-30T05:21:06.023Z,76.91
2016-12-30T05:21:33.815Z,77.49
2016-12-30T05:22:01.545Z,77.01
2016-12-30T05:22:29.295Z,78.07
2016-12-30T05:22:57.215Z,77.88
2016-12-30T05:23:24.989Z,77.69
2016-12-30T05:23:52.751Z,77.69
2016-12-30T05:24:20.611Z,77.78
2016-12-30T05:24:48.391Z,77.69
2016-12-30T05:25:16.180Z,77.78
2016-12-30T05:25:43.959Z,77.2
2016-12-30T05:26:11.813Z,77.88
2016-12-30T05:26:39.587Z,78.17
2016-12-30T05:27:07.372Z,77.88
2016-12-30T05:27:35.164Z,78.07
2016-12-30T05:28:03.006Z,77.69
2016-12-30T05:28:30.802Z,77.88
2016-12-30T05:28:58.705Z,77.88
2016-12-30T05:29:26.480Z,78.27
2016-12-30T05:29:54.240Z,77.98
2016-12-30T05:30:22.013Z,78.07
2016-12-30T05:30:49.794Z,78.17
2016-12-30T05:31:17.619Z,79.24
2016-12-30T05:31:45.381Z,78.85
2016-12-30T05:32:13.155Z,79.24
2016-12-30T05:32:40.929Z,79.14
2016-12-30T05:33:08.783Z,79.2
2016-12-30T05:33:36.572Z,79.68
2016-12-30T05:34:04.357Z,79.3
2016-12-30T05:34:32.134Z,79.43
2016-12-30T05:34:59.952Z,78.94
2016-12-30T05:35:27.773Z,78.94
2016-12-30T05:35:55.513Z,78.56
2016-12-30T05:36:23.302Z,79.04
2016-12-30T05:36:51.047Z,78.36
2016-12-30T05:37:18.900Z,78.36
2016-12-30T05:37:46.674Z,78.66
2016-12-30T05:38:14.501Z,78.46
2016-12-30T05:38:42.251Z,79.14
2016-12-30T05:39:10.069Z,78.91
2016-12-30T05:39:37.850Z,79.2
2016-12-30T05:40:05.645Z,79.1
2016-12-30T05:40:33.416Z,79.68
2016-12-30T05:41:01.190Z,79.68
2016-12-30T05:41:29.049Z,80.07
2016-12-30T05:41:56.843Z,80.07
2016-12-30T05:42:24.652Z,79.58
2016-12-30T05:42:52.428Z,79.68
2016-12-30T05:43:20.265Z,79.58
2016-12-30T05:43:48.132Z,79.3
2016-12-30T05:44:15.930Z,79.14
2016-12-30T05:44:43.696Z,78.94
2016-12-30T05:45:11.559Z,79.3
2016-12-30T05:45:39.299Z,78.75
2016-12-30T05:46:07.073Z,78.66
2016-12-30T05:46:34.874Z,79.14
2016-12-30T05:47:02.664Z,78.94
2016-12-30T05:47:30.450Z,78.91
2016-12-30T05:47:58.265Z,78.81
2016-12-30T05:48:26.142Z,79.04
2016-12-30T05:48:53.945Z,79
2016-12-30T05:49:21.816Z,78.81
2016-12-30T05:49:49.624Z,79.1
2016-12-30T05:50:17.366Z,79.1
2016-12-30T05:50:45.135Z,79
2016-12-30T05:51:12.889Z,78.36
2016-12-30T05:51:40.652Z,79.2
2016-12-30T05:52:08.404Z,78.81
2016-12-30T05:52:36.197Z,78.33
2016-12-30T05:53:04.105Z,79
2016-12-30T05:53:32.094Z,78.75
2016-12-30T05:53:59.891Z,79
2016-12-30T05:54:27.673Z,79
2016-12-30T05:54:55.429Z,79.04
2016-12-30T05:55:23.214Z,78.91
2016-12-30T05:55:51.017Z,79.1
2016-12-30T05:56:18.793Z,79.04
2016-12-30T05:56:46.548Z,78.33
2016-12-30T05:57:14.312Z,78.07
2016-12-30T05:57:42.090Z,78.17
2016-12-30T05:58:10.000Z,77.94
2016-12-30T05:58:37.804Z,78.52